createdAt,value
2018-05-04T00:00:18.681Z,98168.26
2018-05-04T00:02:51.870Z,98169.66
2018-05-04T00:05:19.010Z,98175.44
2018-05-04T00:07:45.266Z,98184.05
2018-05-04T00:10:11.530Z,98186.22
2018-05-04T00:12:38.110Z,98182.79
2018-05-04T00:15:04.398Z,98180.45
2018-05-04T00:17:30.876Z,98186.64
2018-05-04T00:19:57.110Z,98185.77
2018-05-04T00:22:23.345Z,98194.48
2018-05-04T00:24:49.667Z,98190.73
2018-05-04T00:27:15.921Z,98193.70
2018-05-04T00:29:42.223Z,98192.64
2018-05-04T00:32:08.442Z,98192.64
2018-05-04T00:34:35.526Z,98187.62
2018-05-04T00:37:01.754Z,98191.16
2018-05-04T00:39:28.026Z,98193.05
2018-05-04T00:41:54.263Z,98195.46
2018-05-04T00:44:20.506Z,98193.33
2018-05-04T00:46:46.789Z,98182.17
2018-05-04T00:49:13.053Z,98184.38
2018-05-04T00:51:40.146Z,98186.21
2018-05-04T00:54:18.490Z,98180.72
2018-05-04T00:56:44.740Z,98184.32
2018-05-04T00:59:10.955Z,98189.89
2018-05-04T01:01:37.242Z,98195.61
2018-05-04T01:04:03.517Z,98190.18
2018-05-04T01:06:29.753Z,98195.23
2018-05-04T01:08:56.078Z,98200.84
2018-05-04T01:11:22.302Z,98194.47
2018-05-04T01:13:48.554Z,98203.69
2018-05-04T01:16:14.806Z,98197.61
2018-05-04T01:18:41.046Z,98206.03
2018-05-04T01:21:07.339Z,98210.85
2018-05-04T01:23:33.570Z,98207.91
2018-05-04T01:25:59.790Z,98202.27
2018-05-04T01:28:26.045Z,98204.94
2018-05-04T01:30:52.273Z,98211.86
2018-05-04T01:33:18.604Z,98211.66
2018-05-04T01:35:44.861Z,98208.80
2018-05-04T01:38:11.082Z,98205.73
2018-05-04T01:40:37.334Z,98209.95
2018-05-04T01:43:03.631Z,98209.28
2018-05-04T01:45:29.970Z,98209.98
2018-05-04T01:47:56.239Z,98213.39
2018-05-04T01:50:22.474Z,98217.19
2018-05-04T01:52:48.741Z,98223.66
2018-05-04T01:55:14.962Z,98219.13
2018-05-04T01:57:41.254Z,98219.50
2018-05-04T02:00:07.511Z,98217.20
2018-05-04T02:02:33.826Z,98212.48
2018-05-04T02:05:00.104Z,98218.83
2018-05-04T02:07:26.410Z,98219.59
2018-05-04T02:09:52.640Z,98220.58
2018-05-04T02:12:18.869Z,98207.31
2018-05-04T02:14:45.173Z,98208.52
2018-05-04T02:17:11.385Z,98204.96
2018-05-04T02:19:37.618Z,98210.95
2018-05-04T02:22:03.878Z,98208.41
2018-05-04T02:24:30.170Z,98211.25
2018-05-04T02:26:56.383Z,98205.62
2018-05-04T02:29:22.662Z,98210.27
2018-05-04T02:31:48.918Z,98215.75
2018-05-04T02:34:15.236Z,98219.25
2018-05-04T02:36:41.510Z,98221.77
2018-05-04T02:39:14.766Z,98214.09
2018-05-04T02:41:41.082Z,98220.38
2018-05-04T02:44:07.301Z,98224.34
2018-05-04T02:46:33.547Z,98219.93
2018-05-04T02:49:00.035Z,98218.03
2018-05-04T02:51:26.249Z,98214.53
2018-05-04T02:53:52.479Z,98208.77
2018-05-04T02:56:18.758Z,98210.78
2018-05-04T02:58:45.014Z,98204.83
2018-05-04T03:01:11.278Z,98197.31
2018-05-04T03:03:37.602Z,98198.88
2018-05-04T03:06:04.055Z,98202.73
2018-05-04T03:08:30.362Z,98207.77
2018-05-04T03:10:56.597Z,98203.27
2018-05-04T03:13:22.818Z,98201.93
2018-05-04T03:15:49.042Z,98190.51
2018-05-04T03:18:15.298Z,98193.47
2018-05-04T03:20:41.623Z,98199.68
2018-05-04T03:23:08.102Z,98199.00
2018-05-04T03:25:34.395Z,98204.41
2018-05-04T03:28:00.691Z,98202.22
2018-05-04T03:30:26.935Z,98199.77
2018-05-04T03:32:53.190Z,98194.36
2018-05-04T03:35:19.453Z,98195.13
2018-05-04T03:37:45.702Z,98202.55
2018-05-04T03:40:12.290Z,98202.84
2018-05-04T03:42:38.497Z,98199.48
2018-05-04T03:45:04.797Z,98206.44
2018-05-04T03:47:31.058Z,98216.50
2018-05-04T03:49:57.318Z,98221.59
2018-05-04T03:52:25.564Z,98222.86
2018-05-04T03:54:51.802Z,98225.70
2018-05-04T03:57:30.434Z,98230.27
2018-05-04T04:00:08.954Z,98230.83
2018-05-04T04:02:58.289Z,98225.50
2018-05-04T04:05:24.622Z,98224.55
2018-05-04T04:07:50.921Z,98232.42
2018-05-04T04:10:17.191Z,98238.22
2018-05-04T04:12:43.471Z,98228.87
2018-05-04T04:15:09.711Z,98244.44
2018-05-04T04:17:35.954Z,98232.98
2018-05-04T04:20:02.208Z,98236.21
2018-05-04T04:22:28.447Z,98237.96
2018-05-04T04:24:54.746Z,98234.77
2018-05-04T04:27:20.999Z,98240.66
2018-05-04T04:29:47.325Z,98247.19
2018-05-04T04:32:13.557Z,98250.92
2018-05-04T04:34:39.834Z,98244.65
2018-05-04T04:37:06.057Z,98251.98
2018-05-04T04:39:32.273Z,98252.76
2018-05-04T04:41:58.546Z,98251.75
2018-05-04T04:44:24.757Z,98260.75
2018-05-04T04:46:51.011Z,98260.81
2018-05-04T04:49:17.273Z,98271.95
2018-05-04T04:51:43.537Z,98275.68
2018-05-04T04:54:09.762Z,98273.66
2018-05-04T04:56:36.003Z,98282.70
2018-05-04T04:59:02.238Z,98286.80
2018-05-04T05:01:28.507Z,98292.61
2018-05-04T05:03:54.770Z,98291.72
2018-05-04T05:06:21.002Z,98289.56
2018-05-04T05:08:47.222Z,98289.56
2018-05-04T05:11:13.970Z,98290.09
2018-05-04T05:13:40.198Z,98299.48
2018-05-04T05:16:06.418Z,98304.89
2018-05-04T05:18:32.691Z,98301.59
2018-05-04T05:20:58.902Z,98308.55
2018-05-04T05:23:25.178Z,98308.87
2018-05-04T05:25:51.418Z,98302.89
2018-05-04T05:28:17.703Z,98306.05
2018-05-04T05:30:43.926Z,98317.48
2018-05-04T05:33:10.263Z,98313.55
2018-05-04T05:35:36.569Z,98305.83
2018-05-04T05:38:02.810Z,98304.94
2018-05-04T05:40:29.051Z,98305.00
2018-05-04T05:42:55.294Z,98312.19
2018-05-04T05:45:21.535Z,98319.98
2018-05-04T05:47:47.875Z,98321.91
2018-05-04T05:50:14.158Z,98318.59
2018-05-04T05:52:40.387Z,98325.47
2018-05-04T05:55:06.631Z,98328.64
2018-05-04T05:57:32.849Z,98331.89
2018-05-04T05:59:59.099Z,98326.14
2018-05-04T06:02:25.358Z,98333.05
2018-05-04T06:04:51.597Z,98326.73
2018-05-04T06:07:17.900Z,98335.23
2018-05-04T06:09:44.160Z,98331.53
2018-05-04T06:12:10.439Z,98334.86
2018-05-04T06:14:36.686Z,98338.26
2018-05-04T06:17:02.962Z,98336.03
2018-05-04T06:19:29.235Z,98345.54
2018-05-04T06:21:55.458Z,98347.04
2018-05-04T06:24:21.742Z,98342.36
2018-05-04T06:26:47.978Z,98336.89
2018-05-04T06:29:14.202Z,98339.66
2018-05-04T06:31:40.482Z,98339.61
2018-05-04T06:34:06.739Z,98349.91
2018-05-04T06:36:32.998Z,98346.72
2018-05-04T06:38:59.302Z,98354.63
2018-05-04T06:41:25.520Z,98355.91
2018-05-04T06:43:51.754Z,98355.28
2018-05-04T06:46:18.007Z,98346.05
2018-05-04T06:48:44.328Z,98343.57
2018-05-04T06:51:10.473Z,98341.09
2018-05-04T06:53:36.738Z,98337.77
2018-05-04T06:56:03.011Z,98344.77
2018-05-04T06:58:29.227Z,98345.38
2018-05-04T07:00:55.474Z,98340.41
2018-05-04T07:03:21.730Z,98352.36
2018-05-04T07:05:47.978Z,98355.78
2018-05-04T07:08:14.221Z,98354.33
2018-05-04T07:10:40.470Z,98360.55
2018-05-04T07:13:06.678Z,98361.48
2018-05-04T07:15:32.932Z,98364.84
2018-05-04T07:17:59.150Z,98360.14
2018-05-04T07:20:25.373Z,98367.76
2018-05-04T07:22:51.618Z,98367.70
2018-05-04T07:25:17.955Z,98363.09
2018-05-04T07:27:44.170Z,98360.48
2018-05-04T07:30:10.438Z,98353.30
2018-05-04T07:32:36.691Z,98349.46
2018-05-04T07:35:02.953Z,98358.87
2018-05-04T07:37:29.222Z,98364.86
2018-05-04T07:39:55.434Z,98366.17
2018-05-04T07:42:21.662Z,98360.15
2018-05-04T07:44:47.929Z,98356.95
2018-05-04T07:47:14.154Z,98350.42
2018-05-04T07:49:40.414Z,98361.69
2018-05-04T07:52:06.670Z,98364.98
2018-05-04T07:54:32.895Z,98369.09
2018-05-04T07:56:59.134Z,98366.63
2018-05-04T07:59:25.387Z,98376.60
2018-05-04T08:01:51.638Z,98380.80
2018-05-04T08:04:17.887Z,98387.55
2018-05-04T08:06:44.134Z,98383.20
2018-05-04T08:09:10.436Z,98387.30
2018-05-04T08:11:36.599Z,98386.37
2018-05-04T08:14:02.958Z,98382.55
2018-05-04T08:16:29.186Z,98381.53
2018-05-04T08:18:55.405Z,98382.60
2018-05-04T08:21:21.689Z,98382.06
2018-05-04T08:23:47.907Z,98380.28
2018-05-04T08:26:14.134Z,98385.37
2018-05-04T08:28:40.393Z,98384.60
2018-05-04T08:31:06.698Z,98386.88
2018-05-04T08:33:32.919Z,98385.09
2018-05-04T08:35:59.210Z,98389.93
2018-05-04T08:38:25.478Z,98390.19
2018-05-04T08:40:51.800Z,98390.88
2018-05-04T08:43:17.979Z,98394.66
2018-05-04T08:45:44.269Z,98388.38
2018-05-04T08:48:10.544Z,98391.03
2018-05-04T08:50:36.774Z,98393.60
2018-05-04T08:53:03.047Z,98394.30
2018-05-04T08:55:29.266Z,98392.47
2018-05-04T08:57:55.528Z,98388.92
2018-05-04T09:00:21.774Z,98396.36
2018-05-04T09:02:48.019Z,98388.22
2018-05-04T09:05:14.391Z,98388.14
2018-05-04T09:07:40.613Z,98390.81
2018-05-04T09:10:06.858Z,98391.07
2018-05-04T09:12:33.146Z,98383.84
2018-05-04T09:14:59.390Z,98383.30
2018-05-04T09:17:25.667Z,98393.73
2018-05-04T09:19:52.053Z,98376.05
2018-05-04T09:22:18.230Z,98386.17
2018-05-04T09:24:44.458Z,98390.47
2018-05-04T09:27:10.713Z,98389.22
2018-05-04T09:29:37.013Z,98389.48
2018-05-04T09:32:03.278Z,98394.38
2018-05-04T09:34:29.541Z,98390.51
2018-05-04T09:36:55.810Z,98386.75
2018-05-04T09:39:22.058Z,98387.55
2018-05-04T09:41:48.342Z,98386.45
2018-05-04T09:44:14.574Z,98385.76
2018-05-04T09:46:40.797Z,98391.14
2018-05-04T09:49:07.138Z,98388.83
2018-05-04T09:51:33.380Z,98381.80
2018-05-04T09:53:59.601Z,98377.55
2018-05-04T09:56:25.861Z,98382.20
2018-05-04T09:58:52.121Z,98370.73
2018-05-04T10:01:18.461Z,98376.31
2018-05-04T10:03:44.782Z,98381.63
2018-05-04T10:06:11.030Z,98369.84
2018-05-04T10:08:37.294Z,98368.30
2018-05-04T10:11:03.579Z,98353.05
2018-05-04T10:13:29.838Z,98370.67
2018-05-04T10:15:56.096Z,98378.98
2018-05-04T10:18:22.349Z,98368.89
2018-05-04T10:20:48.597Z,98368.66
2018-05-04T10:23:14.857Z,98372.97
2018-05-04T10:25:41.123Z,98369.20
2018-05-04T10:28:07.402Z,98368.26
2018-05-04T10:30:33.666Z,98366.88
2018-05-04T10:32:59.918Z,98368.36
2018-05-04T10:35:26.174Z,98376.58
2018-05-04T10:37:52.411Z,98377.40
2018-05-04T10:40:18.847Z,98374.53
2018-05-04T10:42:45.156Z,98372.77
2018-05-04T10:45:11.474Z,98366.76
2018-05-04T10:47:37.730Z,98370.81
2018-05-04T10:50:04.003Z,98376.03
2018-05-04T10:52:30.267Z,98374.78
2018-05-04T10:54:56.519Z,98374.98
2018-05-04T10:57:22.787Z,98372.95
2018-05-04T10:59:49.087Z,98372.05
2018-05-04T11:02:15.390Z,98378.17
2018-05-04T11:04:41.642Z,98374.12
2018-05-04T11:07:07.926Z,98372.55
2018-05-04T11:09:34.174Z,98379.78
2018-05-04T11:12:00.491Z,98371.50
2018-05-04T11:14:26.681Z,98368.81
2018-05-04T11:16:52.949Z,98367.89
2018-05-04T11:19:19.253Z,98367.98
2018-05-04T11:21:45.470Z,98362.19
2018-05-04T11:24:11.746Z,98365.70
2018-05-04T11:26:37.990Z,98362.94
2018-05-04T11:29:04.226Z,98368.91
2018-05-04T11:31:30.535Z,98358.94
2018-05-04T11:33:56.766Z,98360.88
2018-05-04T11:36:22.999Z,98362.48
2018-05-04T11:38:49.319Z,98366.37
2018-05-04T11:41:15.543Z,98365.70
2018-05-04T11:43:41.764Z,98358.28
2018-05-04T11:46:08.038Z,98358.43
2018-05-04T11:48:34.278Z,98349.94
2018-05-04T11:51:00.500Z,98359.76
2018-05-04T11:53:26.762Z,98363.02
2018-05-04T11:55:52.986Z,98358.47
2018-05-04T11:58:19.211Z,98352.28
2018-05-04T12:00:45.454Z,98361.33
2018-05-04T12:03:11.678Z,98359.13
2018-05-04T12:05:37.906Z,98367.84
2018-05-04T12:08:04.154Z,98357.34
2018-05-04T12:10:30.382Z,98364.80
2018-05-04T12:12:56.649Z,98359.97
2018-05-04T12:15:22.926Z,98358.31
2018-05-04T12:17:49.155Z,98357.63
2018-05-04T12:20:15.637Z,98358.31
2018-05-04T12:22:41.942Z,98361.13
2018-05-04T12:25:08.130Z,98363.98
2018-05-04T12:27:34.347Z,98362.42
2018-05-04T12:30:00.615Z,98365.98
2018-05-04T12:32:26.830Z,98354.17
2018-05-04T12:34:53.065Z,98355.98
2018-05-04T12:37:19.325Z,98362.19
2018-05-04T12:39:45.558Z,98354.17
2018-05-04T12:42:11.821Z,98362.49
2018-05-04T12:44:38.091Z,98368.36
2018-05-04T12:47:04.391Z,98368.53
2018-05-04T12:49:30.570Z,98367.25
2018-05-04T12:51:56.821Z,98370.16
2018-05-04T12:54:23.045Z,98372.22
2018-05-04T12:56:49.300Z,98374.65
2018-05-04T12:59:15.574Z,98367.84
2018-05-04T13:01:41.798Z,98376.66
2018-05-04T13:04:08.025Z,98378.31
2018-05-04T13:06:34.269Z,98369.64
2018-05-04T13:09:00.490Z,98373.34
2018-05-04T13:11:26.773Z,98367.12
2018-05-04T13:13:53.055Z,98362.29
2018-05-04T13:16:19.279Z,98361.64
2018-05-04T13:18:45.506Z,98356.56
2018-05-04T13:21:11.759Z,98361.07
2018-05-04T13:23:37.994Z,98361.89
2018-05-04T13:26:04.218Z,98371.31
2018-05-04T13:28:30.481Z,98362.54
2018-05-04T13:30:56.744Z,98359.37
2018-05-04T13:33:23.037Z,98362.52
2018-05-04T13:35:49.294Z,98356.41
2018-05-04T13:38:15.562Z,98354.74
2018-05-04T13:40:41.790Z,98352.75
2018-05-04T13:43:08.075Z,98348.94
2018-05-04T13:45:34.319Z,98351.89
2018-05-04T13:48:00.546Z,98349.78
2018-05-04T13:50:26.868Z,98353.50
2018-05-04T13:52:53.125Z,98340.06
2018-05-04T13:55:19.349Z,98337.92
2018-05-04T13:57:45.630Z,98348.58
2018-05-04T14:00:11.868Z,98340.67
2018-05-04T14:02:38.181Z,98344.55
2018-05-04T14:05:04.483Z,98343.39
2018-05-04T14:07:30.715Z,98336.41
2018-05-04T14:09:56.946Z,98339.78
2018-05-04T14:12:23.237Z,98334.41
2018-05-04T14:14:49.519Z,98333.11
2018-05-04T14:17:15.750Z,98330.58
2018-05-04T14:19:42.026Z,98327.58
2018-05-04T14:22:08.252Z,98332.87
2018-05-04T14:24:34.516Z,98330.69
2018-05-04T14:27:00.778Z,98329.66
2018-05-04T14:29:27.000Z,98326.36
2018-05-04T14:31:53.226Z,98332.41
2018-05-04T14:34:19.485Z,98334.30
2018-05-04T14:36:45.709Z,98327.16
2018-05-04T14:39:11.928Z,98328.61
2018-05-04T14:41:38.183Z,98323.28
2018-05-04T14:44:04.419Z,98337.60
2018-05-04T14:46:30.672Z,98325.38
2018-05-04T14:48:56.934Z,98332.24
2018-05-04T14:51:23.156Z,98327.82
2018-05-04T14:53:49.377Z,98327.46
2018-05-04T14:56:15.662Z,98328.70
2018-05-04T14:58:41.974Z,98330.81
2018-05-04T15:01:08.179Z,98333.20
2018-05-04T15:03:34.430Z,98328.80
2018-05-04T15:06:00.659Z,98325.22
2018-05-04T15:08:26.926Z,98330.40
2018-05-04T15:10:53.198Z,98329.55
2018-05-04T15:13:19.418Z,98331.92
2018-05-04T15:15:45.674Z,98333.08
2018-05-04T15:18:11.966Z,98331.29
2018-05-04T15:20:38.186Z,98332.22
2018-05-04T15:23:04.415Z,98336.84
2018-05-04T15:25:30.678Z,98330.91
2018-05-04T15:27:56.922Z,98333.86
2018-05-04T15:30:23.159Z,98342.75
2018-05-04T15:32:49.404Z,98335.53
2018-05-04T15:35:15.630Z,98337.13
2018-05-04T15:37:41.868Z,98337.85
2018-05-04T15:40:08.141Z,98331.48
2018-05-04T15:42:34.366Z,98340.73
2018-05-04T15:45:00.590Z,98341.48
2018-05-04T15:47:26.838Z,98347.13
2018-05-04T15:49:53.103Z,98335.67
2018-05-04T15:52:19.326Z,98336.39
2018-05-04T15:54:45.668Z,98342.27
2018-05-04T15:57:11.851Z,98339.36
2018-05-04T15:59:38.087Z,98340.81
2018-05-04T16:02:04.341Z,98346.37
2018-05-04T16:04:30.575Z,98348.81
2018-05-04T16:06:56.902Z,98342.93
2018-05-04T16:09:23.161Z,98341.66
2018-05-04T16:11:49.394Z,98346.47
2018-05-04T16:14:15.637Z,98343.75
2018-05-04T16:16:41.890Z,98342.07
2018-05-04T16:19:08.123Z,98341.64
2018-05-04T16:21:34.377Z,98345.67
2018-05-04T16:24:00.638Z,98344.82
2018-05-04T16:26:26.902Z,98340.88
2018-05-04T16:28:53.177Z,98353.85
2018-05-04T16:31:19.441Z,98352.99
2018-05-04T16:33:45.674Z,98349.02
2018-05-04T16:36:11.902Z,98345.08
2018-05-04T16:38:38.228Z,98346.33
2018-05-04T16:41:04.443Z,98348.55
2018-05-04T16:43:30.678Z,98348.48
2018-05-04T16:45:56.935Z,98349.08
2018-05-04T16:48:29.114Z,98358.38
2018-05-04T16:50:55.343Z,98359.02
2018-05-04T16:53:21.598Z,98356.53
2018-05-04T16:55:47.922Z,98352.16
2018-05-04T16:58:14.170Z,98348.27
2018-05-04T17:00:40.489Z,98349.06
2018-05-04T17:03:06.806Z,98351.60
2018-05-04T17:05:33.058Z,98353.66
2018-05-04T17:07:59.366Z,98352.56
2018-05-04T17:10:25.613Z,98364.81
2018-05-04T17:12:51.891Z,98359.38
2018-05-04T17:15:18.200Z,98356.52
2018-05-04T17:17:44.464Z,98363.44
2018-05-04T17:20:10.693Z,98368.40
2018-05-04T17:22:36.994Z,98361.07
2018-05-04T17:25:03.274Z,98362.19
2018-05-04T17:27:29.538Z,98358.41
2018-05-04T17:29:55.823Z,98362.03
2018-05-04T17:32:22.086Z,98367.47
2018-05-04T17:34:48.309Z,98361.50
2018-05-04T17:37:14.602Z,98371.95
2018-05-04T17:39:40.831Z,98364.95
2018-05-04T17:42:07.073Z,98369.98
2018-05-04T17:44:33.366Z,98369.24
2018-05-04T17:46:59.614Z,98375.27
2018-05-04T17:49:25.878Z,98379.14
2018-05-04T17:51:52.178Z,98380.34
2018-05-04T17:54:18.434Z,98385.85
2018-05-04T17:56:44.670Z,98387.02
2018-05-04T17:59:10.983Z,98385.28
2018-05-04T18:01:37.238Z,98383.00
2018-05-04T18:04:03.490Z,98391.70
2018-05-04T18:06:29.766Z,98388.64
2018-05-04T18:08:56.007Z,98394.91
2018-05-04T18:11:22.242Z,98396.08
2018-05-04T18:13:48.499Z,98397.23
2018-05-04T18:16:14.759Z,98399.77
2018-05-04T18:18:41.034Z,98405.39
2018-05-04T18:21:07.305Z,98401.95
2018-05-04T18:23:33.553Z,98407.82
2018-05-04T18:25:59.763Z,98403.62
2018-05-04T18:28:26.360Z,98402.22
2018-05-04T18:30:52.685Z,98405.02
2018-05-04T18:33:19.038Z,98405.91
2018-05-04T18:35:45.292Z,98413.28
2018-05-04T18:38:11.566Z,98411.73
2018-05-04T18:40:37.806Z,98422.83
2018-05-04T18:43:04.063Z,98424.34
2018-05-04T18:45:30.307Z,98418.59
2018-05-04T18:47:56.539Z,98423.79
2018-05-04T18:50:22.779Z,98424.55
2018-05-04T18:52:49.018Z,98424.15
2018-05-04T18:55:15.370Z,98427.94
2018-05-04T18:57:41.682Z,98425.59
2018-05-04T19:00:07.966Z,98428.26
2018-05-04T19:02:40.349Z,98429.14
2018-05-04T19:05:06.694Z,98440.34
2018-05-04T19:07:32.923Z,98440.07
2018-05-04T19:09:59.218Z,98439.17
2018-05-04T19:12:25.487Z,98442.97
2018-05-04T19:14:51.768Z,98444.20
2018-05-04T19:17:18.150Z,98447.91
2018-05-04T19:19:44.414Z,98441.87
2018-05-04T19:22:10.638Z,98441.73
2018-05-04T19:24:36.883Z,98450.20
2018-05-04T19:27:03.143Z,98458.98
2018-05-04T19:29:29.386Z,98454.73
2018-05-04T19:31:55.748Z,98450.71
2018-05-04T19:34:22.400Z,98458.78
2018-05-04T19:36:48.626Z,98457.52
2018-05-04T19:39:14.886Z,98460.91
2018-05-04T19:41:41.163Z,98470.28
2018-05-04T19:44:07.391Z,98469.95
2018-05-04T19:46:33.602Z,98474.35
2018-05-04T19:48:59.854Z,98471.89
2018-05-04T19:51:26.069Z,98478.56
2018-05-04T19:53:52.318Z,98474.31
2018-05-04T19:56:18.619Z,98477.25
2018-05-04T19:58:44.883Z,98482.02
2018-05-04T20:01:11.115Z,98479.80
2018-05-04T20:03:37.383Z,98480.66
2018-05-04T20:06:03.631Z,98482.59
2018-05-04T20:08:29.855Z,98484.63
2018-05-04T20:10:56.116Z,98487.74
2018-05-04T20:13:22.335Z,98487.64
2018-05-04T20:15:48.582Z,98487.03
2018-05-04T20:18:14.832Z,98490.54
2018-05-04T20:20:41.082Z,98485.95
2018-05-04T20:23:07.466Z,98492.64
2018-05-04T20:25:33.783Z,98493.11
2018-05-04T20:28:00.210Z,98501.06
2018-05-04T20:30:33.460Z,98495.08
2018-05-04T20:32:59.696Z,98492.31
2018-05-04T20:35:25.922Z,98500.23
2018-05-04T20:37:52.203Z,98500.53
2018-05-04T20:40:18.744Z,98505.54
2018-05-04T20:42:45.047Z,98504.03
2018-05-04T20:45:11.457Z,98507.77
2018-05-04T20:47:37.727Z,98516.95
2018-05-04T20:50:04.833Z,98511.69
2018-05-04T20:52:31.174Z,98515.56
2018-05-04T20:54:57.398Z,98514.11
2018-05-04T20:57:23.708Z,98521.41
2018-05-04T20:59:49.983Z,98517.51
2018-05-04T21:02:16.198Z,98519.84
2018-05-04T21:04:42.486Z,98522.70
2018-05-04T21:07:08.835Z,98516.92
2018-05-04T21:09:35.199Z,98520.77
2018-05-04T21:12:01.422Z,98525.41
2018-05-04T21:14:28.759Z,98525.96
2018-05-04T21:16:54.994Z,98523.98
2018-05-04T21:19:21.284Z,98529.91
2018-05-04T21:21:47.608Z,98531.25
2018-05-04T21:24:13.870Z,98531.88
2018-05-04T21:26:40.187Z,98538.13
2018-05-04T21:29:07.383Z,98535.98
2018-05-04T21:31:33.814Z,98542.48
2018-05-04T21:34:00.041Z,98544.24
2018-05-04T21:36:26.374Z,98542.41
2018-05-04T21:38:52.671Z,98548.70
2018-05-04T21:41:19.001Z,98549.98
2018-05-04T21:43:45.467Z,98552.42
2018-05-04T21:46:11.682Z,98548.68
2018-05-04T21:48:37.958Z,98543.94
2018-05-04T21:51:04.245Z,98544.63
2018-05-04T21:53:31.582Z,98542.84
2018-05-04T21:55:58.873Z,98546.76
2018-05-04T21:58:25.290Z,98552.37
2018-05-04T22:00:51.518Z,98551.48
2018-05-04T22:03:17.857Z,98555.52
2018-05-04T22:05:44.155Z,98555.06
2018-05-04T22:08:10.430Z,98561.30
2018-05-04T22:10:36.671Z,98558.68
2018-05-04T22:13:02.917Z,98560.28
2018-05-04T22:15:29.297Z,98559.95
2018-05-04T22:17:55.534Z,98562.59
2018-05-04T22:20:21.871Z,98563.15
2018-05-04T22:22:48.094Z,98569.61
2018-05-04T22:25:14.398Z,98573.81
2018-05-04T22:27:40.695Z,98568.98
2018-05-04T22:30:07.036Z,98574.22
2018-05-04T22:32:33.322Z,98577.56
2018-05-04T22:34:59.583Z,98583.19
2018-05-04T22:37:25.805Z,98583.89
2018-05-04T22:39:52.114Z,98577.06
2018-05-04T22:42:18.369Z,98585.77
2018-05-04T22:44:44.682Z,98587.44
2018-05-04T22:47:10.854Z,98587.67
2018-05-04T22:49:37.119Z,98587.61
2018-05-04T22:52:03.434Z,98591.75
2018-05-04T22:54:29.643Z,98598.56
2018-05-04T22:56:55.885Z,98597.38
2018-05-04T22:59:22.106Z,98599.30
2018-05-04T23:01:48.338Z,98596.37
2018-05-04T23:04:14.585Z,98599.00
2018-05-04T23:06:40.847Z,98594.28
2018-05-04T23:09:07.148Z,98601.13
2018-05-04T23:11:33.364Z,98595.64
2018-05-04T23:13:59.578Z,98593.33
2018-05-04T23:16:25.812Z,98590.81
2018-05-04T23:18:52.070Z,98592.28
2018-05-04T23:21:18.314Z,98584.70
2018-05-04T23:23:44.546Z,98588.30
2018-05-04T23:26:10.789Z,98585.56
2018-05-04T23:28:37.239Z,98583.94
2018-05-04T23:31:04.257Z,98585.25
2018-05-04T23:33:30.527Z,98585.75
2018-05-04T23:35:56.737Z,98590.16
2018-05-04T23:38:22.953Z,98586.14
2018-05-04T23:40:49.262Z,98590.94
2018-05-04T23:43:15.482Z,98591.05
2018-05-04T23:45:41.714Z,98588.65
2018-05-04T23:48:07.998Z,98589.14
2018-05-04T23:50:34.221Z,98591.00
2018-05-04T23:53:00.438Z,98586.83
2018-05-04T23:55:26.696Z,98583.42
2018-05-04T23:57:52.966Z,98585.48
